sensor_id;sensor_type;location;lat;lon;timestamp;P1;durP1;ratioP1;P2;durP2;ratioP2
35699;SDS011;21818;51.078;12.108;2022-08-04T00:01:45;4.28;;;1.90;;
35699;SDS011;21818;51.078;12.108;2022-08-04T00:09:41;7.78;;;2.00;;
35699;SDS011;21818;51.078;12.108;2022-08-04T00:12:13;3.55;;;1.75;;
35699;SDS011;21818;51.078;12.108;2022-08-04T00:14:45;2.25;;;1.70;;
35699;SDS011;21818;51.078;12.108;2022-08-04T00:17:12;3.80;;;1.83;;
35699;SDS011;21818;51.078;12.108;2022-08-04T00:19:43;8.57;;;1.90;;
35699;SDS011;21818;51.078;12.108;2022-08-04T00:22:11;4.75;;;1.67;;
35699;SDS011;21818;51.078;12.108;2022-08-04T00:24:38;2.75;;;1.60;;
35699;SDS011;21818;51.078;12.108;2022-08-04T00:27:05;3.30;;;1.63;;
35699;SDS011;21818;51.078;12.108;2022-08-04T00:29:32;3.30;;;1.83;;
35699;SDS011;21818;51.078;12.108;2022-08-04T00:31:58;7.07;;;2.35;;
35699;SDS011;21818;51.078;12.108;2022-08-04T00:34:27;3.33;;;1.85;;
35699;SDS011;21818;51.078;12.108;2022-08-04T00:36:56;2.00;;;1.75;;
35699;SDS011;21818;51.078;12.108;2022-08-04T00:39:22;3.50;;;1.60;;
35699;SDS011;21818;51.078;12.108;2022-08-04T00:47:23;2.95;;;1.85;;
35699;SDS011;21818;51.078;12.108;2022-08-04T00:53:12;3.55;;;1.67;;
35699;SDS011;21818;51.078;12.108;2022-08-04T01:04:36;3.45;;;1.98;;
35699;SDS011;21818;51.078;12.108;2022-08-04T01:10:22;4.97;;;2.00;;
35699;SDS011;21818;51.078;12.108;2022-08-04T01:29:22;4.57;;;2.05;;
35699;SDS011;21818;51.078;12.108;2022-08-04T01:34:46;8.18;;;3.13;;
35699;SDS011;21818;51.078;12.108;2022-08-04T01:40:05;5.15;;;2.03;;
35699;SDS011;21818;51.078;12.108;2022-08-04T01:42:32;3.35;;;2.33;;
35699;SDS011;21818;51.078;12.108;2022-08-04T01:45:03;3.50;;;2.22;;
35699;SDS011;21818;51.078;12.108;2022-08-04T01:47:33;4.75;;;2.10;;
35699;SDS011;21818;51.078;12.108;2022-08-04T01:50:02;6.18;;;2.03;;
35699;SDS011;21818;51.078;12.108;2022-08-04T01:52:31;4.75;;;2.33;;
35699;SDS011;21818;51.078;12.108;2022-08-04T01:55:00;4.05;;;2.33;;
35699;SDS011;21818;51.078;12.108;2022-08-04T01:57:28;5.93;;;2.10;;
35699;SDS011;21818;51.078;12.108;2022-08-04T01:59:58;6.18;;;2.30;;
35699;SDS011;21818;51.078;12.108;2022-08-04T02:02:24;6.05;;;2.60;;
35699;SDS011;21818;51.078;12.108;2022-08-04T02:04:49;5.43;;;2.60;;
35699;SDS011;21818;51.078;12.108;2022-08-04T02:10:00;5.70;;;2.45;;
35699;SDS011;21818;51.078;12.108;2022-08-04T02:16:02;4.80;;;2.60;;
35699;SDS011;21818;51.078;12.108;2022-08-04T02:18:16;8.05;;;3.63;;
35699;SDS011;21818;51.078;12.108;2022-08-04T02:23:35;8.23;;;2.88;;
35699;SDS011;21818;51.078;12.108;2022-08-04T02:26:03;5.15;;;2.83;;
35699;SDS011;21818;51.078;12.108;2022-08-04T02:28:52;6.65;;;2.55;;
35699;SDS011;21818;51.078;12.108;2022-08-04T02:31:28;8.88;;;2.72;;
35699;SDS011;21818;51.078;12.108;2022-08-04T02:34:07;6.22;;;2.97;;
35699;SDS011;21818;51.078;12.108;2022-08-04T02:36:40;5.20;;;3.13;;
35699;SDS011;21818;51.078;12.108;2022-08-04T02:39:08;6.80;;;2.80;;
35699;SDS011;21818;51.078;12.108;2022-08-04T02:41:35;11.57;;;2.78;;
35699;SDS011;21818;51.078;12.108;2022-08-04T02:44:03;3.20;;;2.28;;
35699;SDS011;21818;51.078;12.108;2022-08-04T02:46:30;5.70;;;2.63;;
35699;SDS011;21818;51.078;12.108;2022-08-04T02:48:57;5.10;;;2.30;;
35699;SDS011;21818;51.078;12.108;2022-08-04T02:51:28;11.35;;;2.80;;
35699;SDS011;21818;51.078;12.108;2022-08-04T02:53:57;5.60;;;2.90;;
35699;SDS011;21818;51.078;12.108;2022-08-04T02:56:24;3.30;;;2.45;;
35699;SDS011;21818;51.078;12.108;2022-08-04T02:59:01;5.22;;;2.47;;
35699;SDS011;21818;51.078;12.108;2022-08-04T03:01:28;4.20;;;2.65;;
35699;SDS011;21818;51.078;12.108;2022-08-04T03:18:33;5.03;;;2.20;;
35699;SDS011;21818;51.078;12.108;2022-08-04T03:42:00;5.82;;;2.20;;
35699;SDS011;21818;51.078;12.108;2022-08-04T04:03:59;4.70;;;2.15;;
35699;SDS011;21818;51.078;12.108;2022-08-04T04:09:42;4.13;;;2.45;;
35699;SDS011;21818;51.078;12.108;2022-08-04T04:12:36;5.07;;;2.53;;
35699;SDS011;21818;51.078;12.108;2022-08-04T04:21:10;5.47;;;2.72;;
35699;SDS011;21818;51.078;12.108;2022-08-04T04:45:21;5.28;;;2.38;;
35699;SDS011;21818;51.078;12.108;2022-08-04T04:59:12;3.03;;;2.47;;
35699;SDS011;21818;51.078;12.108;2022-08-04T05:04:54;2.85;;;2.08;;
35699;SDS011;21818;51.078;12.108;2022-08-04T05:10:11;5.30;;;2.72;;
35699;SDS011;21818;51.078;12.108;2022-08-04T05:13:22;4.68;;;2.38;;
35699;SDS011;21818;51.078;12.108;2022-08-04T05:21:46;4.93;;;2.50;;
35699;SDS011;21818;51.078;12.108;2022-08-04T05:24:17;4.65;;;2.83;;
35699;SDS011;21818;51.078;12.108;2022-08-04T05:26:47;8.13;;;2.78;;
35699;SDS011;21818;51.078;12.108;2022-08-04T05:29:27;3.13;;;2.58;;
35699;SDS011;21818;51.078;12.108;2022-08-04T05:31:55;4.93;;;2.63;;
35699;SDS011;21818;51.078;12.108;2022-08-04T05:34:25;3.08;;;2.60;;
35699;SDS011;21818;51.078;12.108;2022-08-04T05:37:00;3.65;;;2.40;;
35699;SDS011;21818;51.078;12.108;2022-08-04T05:39:32;6.65;;;3.00;;
35699;SDS011;21818;51.078;12.108;2022-08-04T05:42:03;5.15;;;2.95;;
35699;SDS011;21818;51.078;12.108;2022-08-04T05:44:30;4.85;;;2.80;;
35699;SDS011;21818;51.078;12.108;2022-08-04T05:46:57;11.40;;;3.45;;
35699;SDS011;21818;51.078;12.108;2022-08-04T05:49:23;5.22;;;2.90;;
35699;SDS011;21818;51.078;12.108;2022-08-04T05:51:51;3.75;;;2.25;;
35699;SDS011;21818;51.078;12.108;2022-08-04T05:54:19;3.72;;;2.00;;
35699;SDS011;21818;51.078;12.108;2022-08-04T05:56:46;6.80;;;3.00;;
35699;SDS011;21818;51.078;12.108;2022-08-04T05:59:12;8.18;;;2.50;;
35699;SDS011;21818;51.078;12.108;2022-08-04T06:01:39;6.55;;;2.90;;
35699;SDS011;21818;51.078;12.108;2022-08-04T06:04:06;5.07;;;2.90;;
35699;SDS011;21818;51.078;12.108;2022-08-04T06:06:33;4.60;;;2.60;;
35699;SDS011;21818;51.078;12.108;2022-08-04T06:09:01;5.80;;;3.60;;
35699;SDS011;21818;51.078;12.108;2022-08-04T06:11:27;6.32;;;2.80;;
35699;SDS011;21818;51.078;12.108;2022-08-04T06:13:55;4.68;;;2.90;;
35699;SDS011;21818;51.078;12.108;2022-08-04T06:16:23;5.32;;;2.97;;
35699;SDS011;21818;51.078;12.108;2022-08-04T06:18:50;5.45;;;2.50;;
35699;SDS011;21818;51.078;12.108;2022-08-04T06:21:19;5.30;;;2.60;;
35699;SDS011;21818;51.078;12.108;2022-08-04T06:23:47;6.47;;;2.58;;
35699;SDS011;21818;51.078;12.108;2022-08-04T06:26:14;4.22;;;2.63;;
35699;SDS011;21818;51.078;12.108;2022-08-04T06:28:46;4.60;;;2.80;;
35699;SDS011;21818;51.078;12.108;2022-08-04T06:31:15;6.03;;;2.40;;
35699;SDS011;21818;51.078;12.108;2022-08-04T06:34:02;4.88;;;3.05;;
35699;SDS011;21818;51.078;12.108;2022-08-04T06:36:29;5.82;;;2.78;;
35699;SDS011;21818;51.078;12.108;2022-08-04T06:38:59;5.45;;;2.60;;
35699;SDS011;21818;51.078;12.108;2022-08-04T06:41:27;5.15;;;2.58;;
35699;SDS011;21818;51.078;12.108;2022-08-04T06:43:53;3.80;;;2.60;;
35699;SDS011;21818;51.078;12.108;2022-08-04T06:46:22;5.38;;;2.70;;
35699;SDS011;21818;51.078;12.108;2022-08-04T06:48:48;5.43;;;2.22;;
35699;SDS011;21818;51.078;12.108;2022-08-04T06:51:14;4.20;;;2.33;;
35699;SDS011;21818;51.078;12.108;2022-08-04T06:53:42;4.03;;;2.50;;
35699;SDS011;21818;51.078;12.108;2022-08-04T06:56:07;3.30;;;1.92;;
35699;SDS011;21818;51.078;12.108;2022-08-04T06:58:34;3.55;;;2.28;;
35699;SDS011;21818;51.078;12.108;2022-08-04T07:01:02;7.53;;;2.83;;
35699;SDS011;21818;51.078;12.108;2022-08-04T07:03:29;3.33;;;2.20;;
35699;SDS011;21818;51.078;12.108;2022-08-04T07:05:55;4.22;;;2.22;;
35699;SDS011;21818;51.078;12.108;2022-08-04T07:08:22;3.08;;;2.30;;
35699;SDS011;21818;51.078;12.108;2022-08-04T07:10:48;5.63;;;2.20;;
35699;SDS011;21818;51.078;12.108;2022-08-04T07:13:17;3.58;;;2.42;;
35699;SDS011;21818;51.078;12.108;2022-08-04T07:15:44;5.18;;;2.60;;
35699;SDS011;21818;51.078;12.108;2022-08-04T07:18:11;4.15;;;2.53;;
35699;SDS011;21818;51.078;12.108;2022-08-04T07:20:41;5.63;;;2.53;;
35699;SDS011;21818;51.078;12.108;2022-08-04T07:23:07;4.00;;;2.35;;
35699;SDS011;21818;51.078;12.108;2022-08-04T07:25:35;4.75;;;2.38;;
35699;SDS011;21818;51.078;12.108;2022-08-04T07:28:01;4.93;;;2.30;;
35699;SDS011;21818;51.078;12.108;2022-08-04T07:30:27;2.63;;;2.13;;
35699;SDS011;21818;51.078;12.108;2022-08-04T07:32:55;4.30;;;2.25;;
35699;SDS011;21818;51.078;12.108;2022-08-04T07:35:22;2.92;;;2.00;;
35699;SDS011;21818;51.078;12.108;2022-08-04T07:37:48;5.07;;;2.20;;
35699;SDS011;21818;51.078;12.108;2022-08-04T07:40:14;2.78;;;1.90;;
35699;SDS011;21818;51.078;12.108;2022-08-04T07:42:40;3.63;;;2.05;;
35699;SDS011;21818;51.078;12.108;2022-08-04T07:45:07;2.55;;;1.85;;
35699;SDS011;21818;51.078;12.108;2022-08-04T07:47:34;3.50;;;2.20;;
35699;SDS011;21818;51.078;12.108;2022-08-04T07:50:00;4.35;;;2.38;;
35699;SDS011;21818;51.078;12.108;2022-08-04T07:52:25;4.95;;;2.25;;
35699;SDS011;21818;51.078;12.108;2022-08-04T07:54:52;3.20;;;2.17;;
35699;SDS011;21818;51.078;12.108;2022-08-04T07:57:18;3.80;;;2.40;;
35699;SDS011;21818;51.078;12.108;2022-08-04T07:59:44;2.70;;;2.00;;
35699;SDS011;21818;51.078;12.108;2022-08-04T08:02:11;4.03;;;2.10;;
35699;SDS011;21818;51.078;12.108;2022-08-04T08:04:39;3.03;;;2.17;;
35699;SDS011;21818;51.078;12.108;2022-08-04T08:07:06;4.78;;;2.28;;
35699;SDS011;21818;51.078;12.108;2022-08-04T08:09:32;5.45;;;2.15;;
35699;SDS011;21818;51.078;12.108;2022-08-04T08:11:58;2.90;;;2.13;;
35699;SDS011;21818;51.078;12.108;2022-08-04T08:14:25;2.53;;;2.13;;
35699;SDS011;21818;51.078;12.108;2022-08-04T08:16:52;2.40;;;1.65;;
35699;SDS011;21818;51.078;12.108;2022-08-04T08:19:17;3.28;;;1.80;;
35699;SDS011;21818;51.078;12.108;2022-08-04T08:21:47;2.83;;;2.05;;
35699;SDS011;21818;51.078;12.108;2022-08-04T08:24:13;4.03;;;1.90;;
35699;SDS011;21818;51.078;12.108;2022-08-04T08:26:40;2.88;;;2.22;;
35699;SDS011;21818;51.078;12.108;2022-08-04T08:29:06;2.88;;;2.10;;
35699;SDS011;21818;51.078;12.108;2022-08-04T08:31:31;2.95;;;1.85;;
35699;SDS011;21818;51.078;12.108;2022-08-04T08:33:58;5.85;;;2.40;;
35699;SDS011;21818;51.078;12.108;2022-08-04T08:36:31;2.75;;;2.25;;
35699;SDS011;21818;51.078;12.108;2022-08-04T08:41:54;3.45;;;2.15;;
35699;SDS011;21818;51.078;12.108;2022-08-04T08:50:25;2.17;;;1.75;;
35699;SDS011;21818;51.078;12.108;2022-08-04T08:59:15;2.47;;;1.80;;
35699;SDS011;21818;51.078;12.108;2022-08-04T09:05:13;3.83;;;1.98;;
35699;SDS011;21818;51.078;12.108;2022-08-04T09:10:46;2.80;;;1.95;;
35699;SDS011;21818;51.078;12.108;2022-08-04T09:13:20;7.38;;;2.00;;
35699;SDS011;21818;51.078;12.108;2022-08-04T09:21:38;2.13;;;1.60;;
35699;SDS011;21818;51.078;12.108;2022-08-04T09:24:13;2.13;;;1.83;;
35699;SDS011;21818;51.078;12.108;2022-08-04T09:29:35;3.13;;;1.90;;
35699;SDS011;21818;51.078;12.108;2022-08-04T09:35:16;4.78;;;2.40;;
35699;SDS011;21818;51.078;12.108;2022-08-04T09:37:53;4.03;;;1.48;;
35699;SDS011;21818;51.078;12.108;2022-08-04T09:40:46;2.22;;;1.65;;
35699;SDS011;21818;51.078;12.108;2022-08-04T09:46:29;2.80;;;1.88;;
35699;SDS011;21818;51.078;12.108;2022-08-04T09:49:06;3.53;;;2.00;;
35699;SDS011;21818;51.078;12.108;2022-08-04T09:54:22;2.40;;;1.80;;
35699;SDS011;21818;51.078;12.108;2022-08-04T09:57:11;2.72;;;1.80;;
35699;SDS011;21818;51.078;12.108;2022-08-04T09:59:42;2.83;;;1.52;;
35699;SDS011;21818;51.078;12.108;2022-08-04T10:02:50;2.60;;;1.70;;
35699;SDS011;21818;51.078;12.108;2022-08-04T10:05:20;2.13;;;1.90;;
35699;SDS011;21818;51.078;12.108;2022-08-04T10:10:35;3.17;;;1.42;;
35699;SDS011;21818;51.078;12.108;2022-08-04T10:18:52;1.70;;;1.60;;
35699;SDS011;21818;51.078;12.108;2022-08-04T10:24:52;4.45;;;1.70;;
35699;SDS011;21818;51.078;12.108;2022-08-04T10:27:59;3.33;;;1.77;;
35699;SDS011;21818;51.078;12.108;2022-08-04T10:30:29;4.80;;;1.50;;
35699;SDS011;21818;51.078;12.108;2022-08-04T10:33:02;3.70;;;1.70;;
35699;SDS011;21818;51.078;12.108;2022-08-04T10:35:32;3.95;;;1.80;;
35699;SDS011;21818;51.078;12.108;2022-08-04T10:40:46;4.85;;;1.60;;
35699;SDS011;21818;51.078;12.108;2022-08-04T10:43:35;1.67;;;1.48;;
35699;SDS011;21818;51.078;12.108;2022-08-04T10:46:17;2.42;;;1.60;;
35699;SDS011;21818;51.078;12.108;2022-08-04T10:54:12;2.70;;;1.35;;
35699;SDS011;21818;51.078;12.108;2022-08-04T10:56:45;2.40;;;1.77;;
35699;SDS011;21818;51.078;12.108;2022-08-04T10:59:20;2.67;;;1.85;;
35699;SDS011;21818;51.078;12.108;2022-08-04T11:01:54;2.97;;;1.60;;
35699;SDS011;21818;51.078;12.108;2022-08-04T11:04:36;5.13;;;1.67;;
35699;SDS011;21818;51.078;12.108;2022-08-04T11:07:08;2.20;;;1.52;;
35699;SDS011;21818;51.078;12.108;2022-08-04T11:09:35;2.00;;;1.50;;
35699;SDS011;21818;51.078;12.108;2022-08-04T11:12:09;2.10;;;1.73;;
35699;SDS011;21818;51.078;12.108;2022-08-04T11:14:52;2.53;;;1.65;;
35699;SDS011;21818;51.078;12.108;2022-08-04T11:17:30;2.75;;;1.92;;
35699;SDS011;21818;51.078;12.108;2022-08-04T11:23:09;2.45;;;1.50;;
35699;SDS011;21818;51.078;12.108;2022-08-04T11:25:43;2.17;;;1.70;;
35699;SDS011;21818;51.078;12.108;2022-08-04T11:36:38;1.88;;;1.52;;
35699;SDS011;21818;51.078;12.108;2022-08-04T11:39:24;2.20;;;1.50;;
35699;SDS011;21818;51.078;12.108;2022-08-04T11:42:07;1.50;;;1.40;;
35699;SDS011;21818;51.078;12.108;2022-08-04T11:44:59;2.08;;;1.30;;
35699;SDS011;21818;51.078;12.108;2022-08-04T11:50:13;2.15;;;1.45;;
35699;SDS011;21818;51.078;12.108;2022-08-04T11:52:46;1.75;;;1.25;;
35699;SDS011;21818;51.078;12.108;2022-08-04T11:55:13;2.53;;;1.45;;
35699;SDS011;21818;51.078;12.108;2022-08-04T11:57:40;4.15;;;1.67;;
35699;SDS011;21818;51.078;12.108;2022-08-04T12:00:09;1.65;;;1.48;;
35699;SDS011;21818;51.078;12.108;2022-08-04T12:05:14;2.55;;;1.75;;
35699;SDS011;21818;51.078;12.108;2022-08-04T12:07:50;2.40;;;1.65;;
35699;SDS011;21818;51.078;12.108;2022-08-04T12:17:04;2.78;;;1.33;;
35699;SDS011;21818;51.078;12.108;2022-08-04T12:19:38;2.03;;;1.40;;
35699;SDS011;21818;51.078;12.108;2022-08-04T12:22:07;1.20;;;1.10;;
35699;SDS011;21818;51.078;12.108;2022-08-04T12:24:40;1.50;;;1.30;;
35699;SDS011;21818;51.078;12.108;2022-08-04T12:27:17;2.53;;;1.45;;
35699;SDS011;21818;51.078;12.108;2022-08-04T12:29:47;1.92;;;1.45;;
35699;SDS011;21818;51.078;12.108;2022-08-04T12:32:23;1.52;;;1.33;;
35699;SDS011;21818;51.078;12.108;2022-08-04T12:35:19;3.08;;;1.58;;
35699;SDS011;21818;51.078;12.108;2022-08-04T12:40:27;2.08;;;1.48;;
35699;SDS011;21818;51.078;12.108;2022-08-04T12:43:02;2.60;;;1.58;;
35699;SDS011;21818;51.078;12.108;2022-08-04T12:45:34;2.28;;;1.25;;
35699;SDS011;21818;51.078;12.108;2022-08-04T12:48:05;1.60;;;1.20;;
35699;SDS011;21818;51.078;12.108;2022-08-04T12:50:31;1.73;;;1.42;;
35699;SDS011;21818;51.078;12.108;2022-08-04T12:52:57;2.33;;;1.30;;
35699;SDS011;21818;51.078;12.108;2022-08-04T12:55:26;2.08;;;1.50;;
35699;SDS011;21818;51.078;12.108;2022-08-04T12:57:54;2.42;;;1.38;;
35699;SDS011;21818;51.078;12.108;2022-08-04T13:00:24;1.83;;;1.20;;
35699;SDS011;21818;51.078;12.108;2022-08-04T13:02:53;2.10;;;1.50;;
35699;SDS011;21818;51.078;12.108;2022-08-04T13:05:23;2.10;;;1.40;;
35699;SDS011;21818;51.078;12.108;2022-08-04T13:07:51;2.00;;;1.50;;
35699;SDS011;21818;51.078;12.108;2022-08-04T13:10:19;1.80;;;1.50;;
35699;SDS011;21818;51.078;12.108;2022-08-04T13:12:54;2.38;;;1.38;;
35699;SDS011;21818;51.078;12.108;2022-08-04T13:15:22;1.70;;;1.45;;
35699;SDS011;21818;51.078;12.108;2022-08-04T13:17:53;1.50;;;1.40;;
35699;SDS011;21818;51.078;12.108;2022-08-04T13:20:28;1.52;;;1.25;;
35699;SDS011;21818;51.078;12.108;2022-08-04T13:23:03;1.98;;;1.40;;
35699;SDS011;21818;51.078;12.108;2022-08-04T13:25:35;1.77;;;1.17;;
35699;SDS011;21818;51.078;12.108;2022-08-04T13:28:05;1.33;;;1.20;;
35699;SDS011;21818;51.078;12.108;2022-08-04T13:30:37;2.78;;;1.40;;
35699;SDS011;21818;51.078;12.108;2022-08-04T13:33:03;1.42;;;1.10;;
35699;SDS011;21818;51.078;12.108;2022-08-04T13:35:29;1.67;;;1.55;;
35699;SDS011;21818;51.078;12.108;2022-08-04T13:37:58;2.35;;;1.10;;
35699;SDS011;21818;51.078;12.108;2022-08-04T13:40:25;2.75;;;1.85;;
35699;SDS011;21818;51.078;12.108;2022-08-04T13:42:52;1.48;;;1.27;;
35699;SDS011;21818;51.078;12.108;2022-08-04T13:45:20;1.90;;;1.38;;
35699;SDS011;21818;51.078;12.108;2022-08-04T13:47:48;1.45;;;1.10;;
35699;SDS011;21818;51.078;12.108;2022-08-04T13:50:20;2.08;;;1.25;;
35699;SDS011;21818;51.078;12.108;2022-08-04T13:52:51;2.28;;;1.35;;
35699;SDS011;21818;51.078;12.108;2022-08-04T13:55:22;1.50;;;1.30;;
35699;SDS011;21818;51.078;12.108;2022-08-04T13:58:23;1.40;;;1.20;;
35699;SDS011;21818;51.078;12.108;2022-08-04T14:00:48;1.92;;;1.15;;
35699;SDS011;21818;51.078;12.108;2022-08-04T14:03:28;1.80;;;1.20;;
35699;SDS011;21818;51.078;12.108;2022-08-04T14:08:42;1.55;;;1.08;;
35699;SDS011;21818;51.078;12.108;2022-08-04T14:11:09;1.65;;;1.20;;
35699;SDS011;21818;51.078;12.108;2022-08-04T14:13:35;2.05;;;1.20;;
35699;SDS011;21818;51.078;12.108;2022-08-04T14:16:01;1.27;;;1.02;;
35699;SDS011;21818;51.078;12.108;2022-08-04T14:18:39;1.35;;;1.17;;
35699;SDS011;21818;51.078;12.108;2022-08-04T14:21:08;2.13;;;1.27;;
35699;SDS011;21818;51.078;12.108;2022-08-04T14:26:28;2.03;;;1.30;;
35699;SDS011;21818;51.078;12.108;2022-08-04T14:29:08;1.17;;;1.00;;
35699;SDS011;21818;51.078;12.108;2022-08-04T14:31:35;1.55;;;1.30;;
35699;SDS011;21818;51.078;12.108;2022-08-04T14:34:01;1.88;;;1.30;;
35699;SDS011;21818;51.078;12.108;2022-08-04T14:36:27;1.35;;;1.02;;
35699;SDS011;21818;51.078;12.108;2022-08-04T14:39:11;1.85;;;1.30;;
35699;SDS011;21818;51.078;12.108;2022-08-04T14:41:48;1.50;;;1.30;;
35699;SDS011;21818;51.078;12.108;2022-08-04T14:44:15;2.17;;;1.25;;
35699;SDS011;21818;51.078;12.108;2022-08-04T14:46:50;1.98;;;1.45;;
35699;SDS011;21818;51.078;12.108;2022-08-04T14:49:17;2.08;;;1.40;;
35699;SDS011;21818;51.078;12.108;2022-08-04T14:51:44;2.42;;;1.13;;
35699;SDS011;21818;51.078;12.108;2022-08-04T14:54:31;1.42;;;1.23;;
35699;SDS011;21818;51.078;12.108;2022-08-04T14:57:05;1.60;;;1.10;;
35699;SDS011;21818;51.078;12.108;2022-08-04T14:59:41;0.90;;;0.82;;
35699;SDS011;21818;51.078;12.108;2022-08-04T15:02:09;2.40;;;1.40;;
35699;SDS011;21818;51.078;12.108;2022-08-04T15:04:36;2.65;;;1.10;;
35699;SDS011;21818;51.078;12.108;2022-08-04T15:07:03;1.58;;;1.05;;
35699;SDS011;21818;51.078;12.108;2022-08-04T15:09:29;1.25;;;0.98;;
35699;SDS011;21818;51.078;12.108;2022-08-04T15:11:55;1.45;;;1.35;;
35699;SDS011;21818;51.078;12.108;2022-08-04T15:14:21;1.58;;;1.27;;
35699;SDS011;21818;51.078;12.108;2022-08-04T15:16:47;1.88;;;1.10;;
35699;SDS011;21818;51.078;12.108;2022-08-04T15:19:13;1.58;;;1.10;;
35699;SDS011;21818;51.078;12.108;2022-08-04T15:21:39;1.02;;;0.80;;
35699;SDS011;21818;51.078;12.108;2022-08-04T15:24:05;1.10;;;1.00;;
35699;SDS011;21818;51.078;12.108;2022-08-04T15:26:35;1.55;;;1.27;;
35699;SDS011;21818;51.078;12.108;2022-08-04T15:29:10;1.33;;;1.08;;
35699;SDS011;21818;51.078;12.108;2022-08-04T15:31:55;1.10;;;0.90;;
35699;SDS011;21818;51.078;12.108;2022-08-04T15:34:25;1.98;;;1.50;;
35699;SDS011;21818;51.078;12.108;2022-08-04T15:36:52;1.20;;;1.05;;
35699;SDS011;21818;51.078;12.108;2022-08-04T15:45:27;1.27;;;1.00;;
35699;SDS011;21818;51.078;12.108;2022-08-04T15:50:29;1.95;;;1.52;;
35699;SDS011;21818;51.078;12.108;2022-08-04T15:55:29;1.70;;;1.20;;
35699;SDS011;21818;51.078;12.108;2022-08-04T15:57:56;1.48;;;1.20;;
35699;SDS011;21818;51.078;12.108;2022-08-04T16:00:27;1.20;;;0.80;;
35699;SDS011;21818;51.078;12.108;2022-08-04T16:05:58;1.17;;;0.95;;
35699;SDS011;21818;51.078;12.108;2022-08-04T16:08:23;1.40;;;1.30;;
35699;SDS011;21818;51.078;12.108;2022-08-04T16:10:49;1.40;;;1.00;;
35699;SDS011;21818;51.078;12.108;2022-08-04T16:13:17;1.73;;;1.15;;
35699;SDS011;21818;51.078;12.108;2022-08-04T16:15:51;1.10;;;1.00;;
35699;SDS011;21818;51.078;12.108;2022-08-04T16:18:35;1.25;;;0.95;;
35699;SDS011;21818;51.078;12.108;2022-08-04T16:21:03;1.20;;;1.10;;
35699;SDS011;21818;51.078;12.108;2022-08-04T16:29:47;2.15;;;1.08;;
35699;SDS011;21818;51.078;12.108;2022-08-04T16:42:48;1.40;;;1.20;;
35699;SDS011;21818;51.078;12.108;2022-08-04T16:45:14;1.67;;;1.02;;
35699;SDS011;21818;51.078;12.108;2022-08-04T16:50:12;1.20;;;0.93;;
35699;SDS011;21818;51.078;12.108;2022-08-04T16:52:41;1.20;;;1.00;;
35699;SDS011;21818;51.078;12.108;2022-08-04T16:55:14;1.75;;;1.00;;
35699;SDS011;21818;51.078;12.108;2022-08-04T16:57:40;1.23;;;1.00;;
35699;SDS011;21818;51.078;12.108;2022-08-04T17:00:09;1.45;;;1.25;;
35699;SDS011;21818;51.078;12.108;2022-08-04T17:02:35;1.40;;;0.93;;
35699;SDS011;21818;51.078;12.108;2022-08-04T17:05:01;1.40;;;1.30;;
35699;SDS011;21818;51.078;12.108;2022-08-04T17:07:27;3.92;;;1.10;;
35699;SDS011;21818;51.078;12.108;2022-08-04T17:09:52;1.25;;;0.95;;
35699;SDS011;21818;51.078;12.108;2022-08-04T17:12:19;1.42;;;1.10;;
35699;SDS011;21818;51.078;12.108;2022-08-04T17:14:51;1.05;;;0.90;;
35699;SDS011;21818;51.078;12.108;2022-08-04T17:17:18;0.68;;;0.68;;
35699;SDS011;21818;51.078;12.108;2022-08-04T17:19:50;1.40;;;1.00;;
35699;SDS011;21818;51.078;12.108;2022-08-04T17:22:17;1.48;;;1.05;;
35699;SDS011;21818;51.078;12.108;2022-08-04T17:24:44;1.33;;;0.90;;
35699;SDS011;21818;51.078;12.108;2022-08-04T17:27:09;1.17;;;0.98;;
35699;SDS011;21818;51.078;12.108;2022-08-04T17:29:35;1.98;;;1.30;;
35699;SDS011;21818;51.078;12.108;2022-08-04T17:32:02;2.20;;;1.10;;
35699;SDS011;21818;51.078;12.108;2022-08-04T17:34:28;2.00;;;1.20;;
35699;SDS011;21818;51.078;12.108;2022-08-04T17:36:53;0.88;;;0.85;;
35699;SDS011;21818;51.078;12.108;2022-08-04T17:39:19;1.08;;;0.90;;
35699;SDS011;21818;51.078;12.108;2022-08-04T17:41:47;1.48;;;0.90;;
35699;SDS011;21818;51.078;12.108;2022-08-04T17:44:19;0.75;;;0.70;;
35699;SDS011;21818;51.078;12.108;2022-08-04T17:46:45;1.40;;;0.90;;
35699;SDS011;21818;51.078;12.108;2022-08-04T17:51:42;1.52;;;1.20;;
35699;SDS011;21818;51.078;12.108;2022-08-04T17:54:16;1.00;;;0.80;;
35699;SDS011;21818;51.078;12.108;2022-08-04T17:56:47;0.80;;;0.80;;
35699;SDS011;21818;51.078;12.108;2022-08-04T17:59:22;1.10;;;0.93;;
35699;SDS011;21818;51.078;12.108;2022-08-04T18:02:04;2.05;;;1.05;;
35699;SDS011;21818;51.078;12.108;2022-08-04T18:04:31;1.10;;;1.00;;
35699;SDS011;21818;51.078;12.108;2022-08-04T18:10:08;1.02;;;0.90;;
35699;SDS011;21818;51.078;12.108;2022-08-04T18:12:28;1.50;;;0.95;;
35699;SDS011;21818;51.078;12.108;2022-08-04T18:15:00;1.67;;;0.90;;
35699;SDS011;21818;51.078;12.108;2022-08-04T18:17:37;2.17;;;1.48;;
35699;SDS011;21818;51.078;12.108;2022-08-04T18:20:07;4.93;;;1.30;;
35699;SDS011;21818;51.078;12.108;2022-08-04T18:22:39;3.03;;;1.02;;
35699;SDS011;21818;51.078;12.108;2022-08-04T18:25:06;10.52;;;1.15;;
35699;SDS011;21818;51.078;12.108;2022-08-04T18:27:33;2.83;;;1.13;;
35699;SDS011;21818;51.078;12.108;2022-08-04T18:29:59;2.45;;;1.50;;
35699;SDS011;21818;51.078;12.108;2022-08-04T18:32:26;4.28;;;1.10;;
35699;SDS011;21818;51.078;12.108;2022-08-04T18:34:52;3.20;;;1.23;;
35699;SDS011;21818;51.078;12.108;2022-08-04T18:37:19;2.38;;;0.93;;
35699;SDS011;21818;51.078;12.108;2022-08-04T18:39:45;1.70;;;1.02;;
35699;SDS011;21818;51.078;12.108;2022-08-04T18:42:11;1.85;;;1.10;;
35699;SDS011;21818;51.078;12.108;2022-08-04T18:44:37;3.63;;;1.25;;
35699;SDS011;21818;51.078;12.108;2022-08-04T18:47:03;2.05;;;1.00;;
35699;SDS011;21818;51.078;12.108;2022-08-04T18:49:29;3.63;;;1.33;;
35699;SDS011;21818;51.078;12.108;2022-08-04T18:51:55;2.15;;;1.15;;
35699;SDS011;21818;51.078;12.108;2022-08-04T18:54:21;4.47;;;1.40;;
35699;SDS011;21818;51.078;12.108;2022-08-04T18:56:49;2.15;;;1.02;;
35699;SDS011;21818;51.078;12.108;2022-08-04T18:59:16;3.38;;;1.20;;
35699;SDS011;21818;51.078;12.108;2022-08-04T19:01:42;2.95;;;0.98;;
35699;SDS011;21818;51.078;12.108;2022-08-04T19:04:08;1.45;;;0.70;;
35699;SDS011;21818;51.078;12.108;2022-08-04T19:06:34;3.63;;;1.00;;
35699;SDS011;21818;51.078;12.108;2022-08-04T19:09:00;2.13;;;1.10;;
35699;SDS011;21818;51.078;12.108;2022-08-04T19:11:27;3.67;;;1.65;;
35699;SDS011;21818;51.078;12.108;2022-08-04T19:13:53;2.38;;;1.20;;
35699;SDS011;21818;51.078;12.108;2022-08-04T19:16:18;2.42;;;1.25;;
35699;SDS011;21818;51.078;12.108;2022-08-04T19:18:45;2.03;;;1.10;;
35699;SDS011;21818;51.078;12.108;2022-08-04T19:21:10;3.08;;;1.55;;
35699;SDS011;21818;51.078;12.108;2022-08-04T19:23:36;4.65;;;1.48;;
35699;SDS011;21818;51.078;12.108;2022-08-04T19:26:01;5.78;;;1.73;;
35699;SDS011;21818;51.078;12.108;2022-08-04T19:28:28;7.00;;;1.60;;
35699;SDS011;21818;51.078;12.108;2022-08-04T19:30:54;5.15;;;1.65;;
35699;SDS011;21818;51.078;12.108;2022-08-04T19:33:21;3.97;;;1.60;;
35699;SDS011;21818;51.078;12.108;2022-08-04T19:35:46;2.65;;;1.40;;
35699;SDS011;21818;51.078;12.108;2022-08-04T19:38:12;6.93;;;2.58;;
35699;SDS011;21818;51.078;12.108;2022-08-04T19:40:38;4.63;;;1.50;;
35699;SDS011;21818;51.078;12.108;2022-08-04T19:43:05;4.32;;;1.60;;
35699;SDS011;21818;51.078;12.108;2022-08-04T19:45:31;3.47;;;1.52;;
35699;SDS011;21818;51.078;12.108;2022-08-04T19:47:57;6.28;;;1.55;;